Terminal Aerodrome Forecast
Issued by NWS Cleveland, OH

Home | Current Version | Previous Version | Text Only | Print | Product List | Glossary Off
Versions: 1 2 3 4 5 6 7 8 9 10 11 12 13 14 15 16 17 18 19 20 21 22 23 24 25 26 27 28 29

000
FTUS41 KCLE 310100 AAA
TAFCLE
TAF AMD
KCLE 310102Z 3101/0106 22004KT P6SM VCSH SCT050 BKN080
      TEMPO 3102/3104 4SM SHRA BKN035
     FM311500 25008KT P6SM BKN045
     FM010100 20004KT P6SM FEW060=

USA.gov is the U.S. government's official web portal to all federal, state and local government web resources and services.